Dow City, IA (51528)

4:33 AM CDT on September 15, 2014 (GMT -0500)
Denison Municipal | Change Station
CLOSE
Current Station
Airport
Location: Denison,
Elevation: 1273 ft
Nearby Weather Stations

Elev 1273 ft 41.98 °N, 95.38 °W | Updated 18 minutes ago

Partly Cloudy
Partly Cloudy
54 °F
Feels Like 54 °F
N
9
Wind Variable Wind from NNE

Today
High -- | Low -- °F
--% Chance of Precip.
Yesterday
High -- | Low -- °F
Precip. -- in
7:02 AM 7:31 PM
Waning Gibbous, 57% visible
Pressure 30.05 in
Visibility 10.0 miles
Clouds Few 3300 ft
Dew Point 54 °F
Humidity 100%
Rainfall 0.00 in
Snow Depth Not available.
UV 0 out of 12
Pollen 7.10 out of 12
Air Quality Not available.
Flu Activity Not available.
METAR KDNS 150915Z AUTO 02008KT 10SM FEW033 12/12 A3005 RMK AO2

More Conditions Fewer Conditions

Pressure 30.05 in
Visibility 10.0 miles
Clouds Few 3300 ft
Dew Point 54 °F
Humidity 100%
Rainfall 0.00 in
Snow Depth Not available.
UV 0 out of 12
Pollen 7.10 out of 12
Air Quality Not available.
Flu Activity Not available.
METAR KDNS 150915Z AUTO 02008KT 10SM FEW033 12/12 A3005 RMK AO2

More Conditions Fewer Conditions

10-Day Weather Forecast

Almanac

Astronomy

Sep. 15, 2014 Rise Set
Actual Time 7:02 AM CDT 7:31 PM CDT
Civil Twilight 6:34 AM CDT 7:59 PM CDT
Nautical Twilight 6:01 AM CDT 8:32 PM CDT
Astronomical Twilight 5:26 AM CDT 9:06 PM CDT
Moon No Moon Rise 2:08 PM CDT
Length of Visible Light 13h 25m
Length of Day
12h 29m
Tomorrow will be 2m 46s shorter.
Waning Gibbous, 57% of the Moon is Illuminated
Today
Waning Gibbous
Sep 15
Last Quarter
Sep 24
New
Oct 1
First Quarter
Oct 8
Full

Today's Extremes

State Highs State Lows

Community

WunderPhotos

Upload Photos

1,753,426 photos uploaded!

Nearby

Snow Depth

Station Depth Elevation
No new snow has been reported.

Earthquake Activity

City Distance Mag. Time & Date
No recent earthquake activity has been reported nearby.
Minimum magnitude displayed is 2.5.

Coastal Water Temperatures

Place Temperature
No Stations Reporting

Nearby Weather Stations